sensor_id;sensor_type;location;lat;lon;timestamp;P1;durP1;ratioP1;P2;durP2;ratioP2
7899;SDS011;3995;50.856;4.404;2022-09-03T00:01:19;4.83;;;2.17;;
7899;SDS011;3995;50.856;4.404;2022-09-03T00:03:51;4.20;;;2.07;;
7899;SDS011;3995;50.856;4.404;2022-09-03T00:06:26;7.37;;;2.47;;
7899;SDS011;3995;50.856;4.404;2022-09-03T00:09:00;3.03;;;2.10;;
7899;SDS011;3995;50.856;4.404;2022-09-03T00:11:32;8.17;;;2.00;;
7899;SDS011;3995;50.856;4.404;2022-09-03T00:14:05;6.80;;;2.10;;
7899;SDS011;3995;50.856;4.404;2022-09-03T00:16:39;4.87;;;2.23;;
7899;SDS011;3995;50.856;4.404;2022-09-03T00:19:10;3.87;;;2.00;;
7899;SDS011;3995;50.856;4.404;2022-09-03T00:21:40;16.17;;;2.70;;
7899;SDS011;3995;50.856;4.404;2022-09-03T00:24:12;5.20;;;2.13;;
7899;SDS011;3995;50.856;4.404;2022-09-03T00:26:42;14.13;;;2.57;;
7899;SDS011;3995;50.856;4.404;2022-09-03T00:29:14;6.87;;;2.23;;
7899;SDS011;3995;50.856;4.404;2022-09-03T00:31:46;5.00;;;1.80;;
7899;SDS011;3995;50.856;4.404;2022-09-03T00:34:18;2.60;;;1.83;;
7899;SDS011;3995;50.856;4.404;2022-09-03T00:36:52;3.43;;;1.70;;
7899;SDS011;3995;50.856;4.404;2022-09-03T00:39:20;4.07;;;1.97;;
7899;SDS011;3995;50.856;4.404;2022-09-03T00:41:53;4.00;;;2.07;;
7899;SDS011;3995;50.856;4.404;2022-09-03T00:44:35;2.17;;;1.83;;
7899;SDS011;3995;50.856;4.404;2022-09-03T00:47:12;1.80;;;1.50;;
7899;SDS011;3995;50.856;4.404;2022-09-03T00:49:50;2.13;;;1.93;;
7899;SDS011;3995;50.856;4.404;2022-09-03T00:52:33;7.93;;;1.97;;
7899;SDS011;3995;50.856;4.404;2022-09-03T00:55:10;3.53;;;1.77;;
7899;SDS011;3995;50.856;4.404;2022-09-03T00:57:46;3.27;;;1.87;;
7899;SDS011;3995;50.856;4.404;2022-09-03T01:00:21;4.80;;;1.63;;
7899;SDS011;3995;50.856;4.404;2022-09-03T01:02:52;4.70;;;1.80;;
7899;SDS011;3995;50.856;4.404;2022-09-03T01:05:42;5.30;;;2.10;;
7899;SDS011;3995;50.856;4.404;2022-09-03T01:08:28;17.50;;;2.47;;
7899;SDS011;3995;50.856;4.404;2022-09-03T01:11:15;3.03;;;1.60;;
7899;SDS011;3995;50.856;4.404;2022-09-03T01:13:52;2.80;;;1.83;;
7899;SDS011;3995;50.856;4.404;2022-09-03T01:16:28;2.47;;;1.87;;
7899;SDS011;3995;50.856;4.404;2022-09-03T01:19:04;3.80;;;2.10;;
7899;SDS011;3995;50.856;4.404;2022-09-03T01:21:45;4.47;;;2.00;;
7899;SDS011;3995;50.856;4.404;2022-09-03T01:27:28;7.33;;;1.77;;
7899;SDS011;3995;50.856;4.404;2022-09-03T01:30:04;8.63;;;2.30;;
7899;SDS011;3995;50.856;4.404;2022-09-03T01:32:36;6.27;;;2.07;;
7899;SDS011;3995;50.856;4.404;2022-09-03T01:35:11;5.73;;;2.03;;
7899;SDS011;3995;50.856;4.404;2022-09-03T01:37:52;2.67;;;1.70;;
7899;SDS011;3995;50.856;4.404;2022-09-03T01:40:26;7.60;;;2.50;;
7899;SDS011;3995;50.856;4.404;2022-09-03T01:43:04;6.70;;;3.43;;
7899;SDS011;3995;50.856;4.404;2022-09-03T01:45:48;2.80;;;2.03;;
7899;SDS011;3995;50.856;4.404;2022-09-03T01:48:28;7.20;;;2.20;;
7899;SDS011;3995;50.856;4.404;2022-09-03T01:51:18;10.70;;;2.50;;
7899;SDS011;3995;50.856;4.404;2022-09-03T01:54:01;7.50;;;2.17;;
7899;SDS011;3995;50.856;4.404;2022-09-03T01:56:46;3.90;;;1.90;;
7899;SDS011;3995;50.856;4.404;2022-09-03T01:59:47;4.53;;;2.00;;
7899;SDS011;3995;50.856;4.404;2022-09-03T02:02:22;15.63;;;2.50;;
7899;SDS011;3995;50.856;4.404;2022-09-03T02:04:55;4.80;;;2.20;;
7899;SDS011;3995;50.856;4.404;2022-09-03T02:07:25;2.73;;;2.13;;
7899;SDS011;3995;50.856;4.404;2022-09-03T02:09:57;8.47;;;2.20;;
7899;SDS011;3995;50.856;4.404;2022-09-03T02:12:26;3.23;;;2.17;;
7899;SDS011;3995;50.856;4.404;2022-09-03T02:14:58;3.07;;;2.40;;
7899;SDS011;3995;50.856;4.404;2022-09-03T02:17:27;2.50;;;2.03;;
7899;SDS011;3995;50.856;4.404;2022-09-03T02:19:54;4.37;;;2.20;;
7899;SDS011;3995;50.856;4.404;2022-09-03T02:22:22;5.30;;;2.20;;
7899;SDS011;3995;50.856;4.404;2022-09-03T02:24:49;12.73;;;2.80;;
7899;SDS011;3995;50.856;4.404;2022-09-03T02:27:18;4.50;;;2.57;;
7899;SDS011;3995;50.856;4.404;2022-09-03T02:29:45;5.30;;;2.70;;
7899;SDS011;3995;50.856;4.404;2022-09-03T02:32:12;3.33;;;3.03;;
7899;SDS011;3995;50.856;4.404;2022-09-03T02:34:41;5.20;;;2.70;;
7899;SDS011;3995;50.856;4.404;2022-09-03T02:37:12;5.73;;;2.80;;
7899;SDS011;3995;50.856;4.404;2022-09-03T02:39:39;3.47;;;2.67;;
7899;SDS011;3995;50.856;4.404;2022-09-03T02:42:07;4.17;;;2.70;;
7899;SDS011;3995;50.856;4.404;2022-09-03T02:44:38;5.40;;;2.77;;
7899;SDS011;3995;50.856;4.404;2022-09-03T02:47:10;5.93;;;3.40;;
7899;SDS011;3995;50.856;4.404;2022-09-03T02:49:39;11.00;;;3.57;;
7899;SDS011;3995;50.856;4.404;2022-09-03T02:52:08;9.93;;;2.90;;
7899;SDS011;3995;50.856;4.404;2022-09-03T02:54:36;6.23;;;3.47;;
7899;SDS011;3995;50.856;4.404;2022-09-03T02:57:05;5.23;;;3.53;;
7899;SDS011;3995;50.856;4.404;2022-09-03T02:59:33;5.03;;;3.70;;
7899;SDS011;3995;50.856;4.404;2022-09-03T03:02:00;3.60;;;3.20;;
7899;SDS011;3995;50.856;4.404;2022-09-03T03:04:28;6.07;;;3.57;;
7899;SDS011;3995;50.856;4.404;2022-09-03T03:06:56;3.50;;;3.10;;
7899;SDS011;3995;50.856;4.404;2022-09-03T03:09:26;7.23;;;3.53;;
7899;SDS011;3995;50.856;4.404;2022-09-03T03:11:53;8.20;;;3.87;;
7899;SDS011;3995;50.856;4.404;2022-09-03T03:14:20;5.80;;;3.80;;
7899;SDS011;3995;50.856;4.404;2022-09-03T03:16:47;6.33;;;3.50;;
7899;SDS011;3995;50.856;4.404;2022-09-03T03:19:15;7.20;;;3.10;;
7899;SDS011;3995;50.856;4.404;2022-09-03T03:21:42;4.50;;;3.80;;
7899;SDS011;3995;50.856;4.404;2022-09-03T03:24:10;8.33;;;3.93;;
7899;SDS011;3995;50.856;4.404;2022-09-03T03:26:39;7.10;;;4.23;;
7899;SDS011;3995;50.856;4.404;2022-09-03T03:29:06;6.30;;;3.37;;
7899;SDS011;3995;50.856;4.404;2022-09-03T03:31:33;6.27;;;3.30;;
7899;SDS011;3995;50.856;4.404;2022-09-03T03:34:02;9.67;;;3.97;;
7899;SDS011;3995;50.856;4.404;2022-09-03T03:36:29;7.17;;;3.67;;
7899;SDS011;3995;50.856;4.404;2022-09-03T03:38:59;7.03;;;3.37;;
7899;SDS011;3995;50.856;4.404;2022-09-03T03:41:28;8.40;;;3.60;;
7899;SDS011;3995;50.856;4.404;2022-09-03T03:43:58;7.93;;;3.50;;
7899;SDS011;3995;50.856;4.404;2022-09-03T03:46:28;4.20;;;3.10;;
7899;SDS011;3995;50.856;4.404;2022-09-03T03:48:57;8.67;;;2.70;;
7899;SDS011;3995;50.856;4.404;2022-09-03T03:51:24;8.43;;;2.73;;
7899;SDS011;3995;50.856;4.404;2022-09-03T03:53:52;4.97;;;2.80;;
7899;SDS011;3995;50.856;4.404;2022-09-03T03:56:22;8.37;;;2.93;;
7899;SDS011;3995;50.856;4.404;2022-09-03T03:58:50;6.50;;;3.60;;
7899;SDS011;3995;50.856;4.404;2022-09-03T04:01:19;22.63;;;3.60;;
7899;SDS011;3995;50.856;4.404;2022-09-03T04:03:47;7.50;;;3.07;;
7899;SDS011;3995;50.856;4.404;2022-09-03T04:06:16;3.70;;;2.87;;
7899;SDS011;3995;50.856;4.404;2022-09-03T04:08:45;2.77;;;2.40;;
7899;SDS011;3995;50.856;4.404;2022-09-03T04:11:15;3.60;;;3.00;;
7899;SDS011;3995;50.856;4.404;2022-09-03T04:13:43;6.30;;;2.90;;
7899;SDS011;3995;50.856;4.404;2022-09-03T04:16:12;4.43;;;2.57;;
7899;SDS011;3995;50.856;4.404;2022-09-03T04:18:41;2.93;;;2.00;;
7899;SDS011;3995;50.856;4.404;2022-09-03T04:21:09;5.83;;;2.70;;
7899;SDS011;3995;50.856;4.404;2022-09-03T04:23:38;4.40;;;2.40;;
7899;SDS011;3995;50.856;4.404;2022-09-03T04:26:07;2.40;;;2.20;;
7899;SDS011;3995;50.856;4.404;2022-09-03T04:28:35;5.83;;;2.03;;
7899;SDS011;3995;50.856;4.404;2022-09-03T04:31:04;3.60;;;2.93;;
7899;SDS011;3995;50.856;4.404;2022-09-03T04:33:32;3.33;;;2.60;;
7899;SDS011;3995;50.856;4.404;2022-09-03T04:36:04;2.87;;;2.23;;
7899;SDS011;3995;50.856;4.404;2022-09-03T04:38:33;6.70;;;2.27;;
7899;SDS011;3995;50.856;4.404;2022-09-03T04:41:02;2.93;;;2.40;;
7899;SDS011;3995;50.856;4.404;2022-09-03T04:43:30;3.90;;;2.30;;
7899;SDS011;3995;50.856;4.404;2022-09-03T04:45:57;5.20;;;2.50;;
7899;SDS011;3995;50.856;4.404;2022-09-03T04:48:26;4.00;;;2.30;;
7899;SDS011;3995;50.856;4.404;2022-09-03T04:50:54;3.70;;;2.87;;
7899;SDS011;3995;50.856;4.404;2022-09-03T04:53:31;6.10;;;3.07;;
7899;SDS011;3995;50.856;4.404;2022-09-03T04:55:59;4.97;;;2.47;;
7899;SDS011;3995;50.856;4.404;2022-09-03T04:58:27;4.17;;;2.90;;
7899;SDS011;3995;50.856;4.404;2022-09-03T05:00:53;5.20;;;2.83;;
7899;SDS011;3995;50.856;4.404;2022-09-03T05:03:21;6.93;;;3.10;;
7899;SDS011;3995;50.856;4.404;2022-09-03T05:05:52;4.67;;;2.93;;
7899;SDS011;3995;50.856;4.404;2022-09-03T05:08:20;3.80;;;2.90;;
7899;SDS011;3995;50.856;4.404;2022-09-03T05:10:49;3.60;;;2.90;;
7899;SDS011;3995;50.856;4.404;2022-09-03T05:13:23;5.10;;;2.93;;
7899;SDS011;3995;50.856;4.404;2022-09-03T05:15:51;8.33;;;2.80;;
7899;SDS011;3995;50.856;4.404;2022-09-03T05:18:18;6.90;;;3.10;;
7899;SDS011;3995;50.856;4.404;2022-09-03T05:20:45;3.90;;;2.53;;
7899;SDS011;3995;50.856;4.404;2022-09-03T05:23:12;3.37;;;2.60;;
7899;SDS011;3995;50.856;4.404;2022-09-03T05:25:39;5.27;;;2.93;;
7899;SDS011;3995;50.856;4.404;2022-09-03T05:28:08;5.67;;;3.67;;
7899;SDS011;3995;50.856;4.404;2022-09-03T05:30:35;5.20;;;3.43;;
7899;SDS011;3995;50.856;4.404;2022-09-03T05:33:02;4.70;;;3.60;;
7899;SDS011;3995;50.856;4.404;2022-09-03T05:35:30;4.10;;;3.70;;
7899;SDS011;3995;50.856;4.404;2022-09-03T05:37:57;6.43;;;3.30;;
7899;SDS011;3995;50.856;4.404;2022-09-03T05:40:24;4.93;;;3.20;;
7899;SDS011;3995;50.856;4.404;2022-09-03T05:42:53;3.67;;;2.93;;
7899;SDS011;3995;50.856;4.404;2022-09-03T05:45:24;8.40;;;3.53;;
7899;SDS011;3995;50.856;4.404;2022-09-03T05:47:52;6.13;;;3.37;;
7899;SDS011;3995;50.856;4.404;2022-09-03T05:50:19;3.30;;;2.80;;
7899;SDS011;3995;50.856;4.404;2022-09-03T05:52:46;4.50;;;3.07;;
7899;SDS011;3995;50.856;4.404;2022-09-03T05:55:13;3.90;;;2.60;;
7899;SDS011;3995;50.856;4.404;2022-09-03T05:57:41;5.73;;;2.77;;
7899;SDS011;3995;50.856;4.404;2022-09-03T06:00:10;4.43;;;2.73;;
7899;SDS011;3995;50.856;4.404;2022-09-03T06:02:39;5.60;;;3.47;;
7899;SDS011;3995;50.856;4.404;2022-09-03T06:05:07;6.13;;;3.23;;
7899;SDS011;3995;50.856;4.404;2022-09-03T06:07:34;7.30;;;2.83;;
7899;SDS011;3995;50.856;4.404;2022-09-03T06:10:02;4.70;;;2.90;;
7899;SDS011;3995;50.856;4.404;2022-09-03T06:12:29;5.10;;;3.30;;
7899;SDS011;3995;50.856;4.404;2022-09-03T06:14:56;3.40;;;3.10;;
7899;SDS011;3995;50.856;4.404;2022-09-03T06:17:23;4.60;;;3.23;;
7899;SDS011;3995;50.856;4.404;2022-09-03T06:19:52;6.40;;;3.50;;
7899;SDS011;3995;50.856;4.404;2022-09-03T06:22:19;4.33;;;3.10;;
7899;SDS011;3995;50.856;4.404;2022-09-03T06:24:49;3.23;;;2.57;;
7899;SDS011;3995;50.856;4.404;2022-09-03T06:27:16;4.10;;;3.00;;
7899;SDS011;3995;50.856;4.404;2022-09-03T06:29:45;6.23;;;3.57;;
7899;SDS011;3995;50.856;4.404;2022-09-03T06:32:12;5.30;;;3.03;;
7899;SDS011;3995;50.856;4.404;2022-09-03T06:34:39;11.43;;;4.10;;
7899;SDS011;3995;50.856;4.404;2022-09-03T06:37:08;12.57;;;3.00;;
7899;SDS011;3995;50.856;4.404;2022-09-03T06:39:35;3.30;;;2.83;;
7899;SDS011;3995;50.856;4.404;2022-09-03T06:42:03;7.30;;;3.30;;
7899;SDS011;3995;50.856;4.404;2022-09-03T06:44:30;7.87;;;3.73;;
7899;SDS011;3995;50.856;4.404;2022-09-03T06:46:57;4.50;;;3.20;;
7899;SDS011;3995;50.856;4.404;2022-09-03T06:49:25;5.83;;;2.77;;
7899;SDS011;3995;50.856;4.404;2022-09-03T06:51:52;6.53;;;3.33;;
7899;SDS011;3995;50.856;4.404;2022-09-03T06:54:21;12.33;;;3.57;;
7899;SDS011;3995;50.856;4.404;2022-09-03T06:56:49;6.63;;;3.60;;
7899;SDS011;3995;50.856;4.404;2022-09-03T06:59:16;6.33;;;2.87;;
7899;SDS011;3995;50.856;4.404;2022-09-03T07:01:43;4.60;;;2.90;;
7899;SDS011;3995;50.856;4.404;2022-09-03T07:04:13;4.37;;;2.77;;
7899;SDS011;3995;50.856;4.404;2022-09-03T07:06:43;5.83;;;3.30;;
7899;SDS011;3995;50.856;4.404;2022-09-03T07:09:10;6.37;;;2.90;;
7899;SDS011;3995;50.856;4.404;2022-09-03T07:11:40;3.83;;;2.97;;
7899;SDS011;3995;50.856;4.404;2022-09-03T07:14:11;10.90;;;3.20;;
7899;SDS011;3995;50.856;4.404;2022-09-03T07:16:39;13.20;;;3.40;;
7899;SDS011;3995;50.856;4.404;2022-09-03T07:19:07;7.60;;;4.00;;
7899;SDS011;3995;50.856;4.404;2022-09-03T07:21:35;3.77;;;2.27;;
7899;SDS011;3995;50.856;4.404;2022-09-03T07:24:03;7.80;;;3.70;;
7899;SDS011;3995;50.856;4.404;2022-09-03T07:26:32;5.03;;;3.17;;
7899;SDS011;3995;50.856;4.404;2022-09-03T07:29:02;6.73;;;2.80;;
7899;SDS011;3995;50.856;4.404;2022-09-03T07:31:32;4.23;;;2.60;;
7899;SDS011;3995;50.856;4.404;2022-09-03T07:34:01;5.13;;;2.90;;
7899;SDS011;3995;50.856;4.404;2022-09-03T07:36:33;9.80;;;3.50;;
7899;SDS011;3995;50.856;4.404;2022-09-03T07:39:05;8.10;;;2.83;;
7899;SDS011;3995;50.856;4.404;2022-09-03T07:41:33;10.10;;;2.80;;
7899;SDS011;3995;50.856;4.404;2022-09-03T07:44:03;9.10;;;3.10;;
7899;SDS011;3995;50.856;4.404;2022-09-03T07:46:31;4.30;;;2.80;;
7899;SDS011;3995;50.856;4.404;2022-09-03T07:48:59;3.60;;;2.53;;
7899;SDS011;3995;50.856;4.404;2022-09-03T07:51:27;8.63;;;2.50;;
7899;SDS011;3995;50.856;4.404;2022-09-03T07:53:56;6.67;;;2.67;;
7899;SDS011;3995;50.856;4.404;2022-09-03T07:56:24;9.77;;;2.80;;
7899;SDS011;3995;50.856;4.404;2022-09-03T07:58:55;10.70;;;3.60;;
7899;SDS011;3995;50.856;4.404;2022-09-03T08:01:25;9.77;;;3.07;;
7899;SDS011;3995;50.856;4.404;2022-09-03T08:03:55;11.00;;;2.63;;
7899;SDS011;3995;50.856;4.404;2022-09-03T08:06:23;9.03;;;5.23;;
7899;SDS011;3995;50.856;4.404;2022-09-03T08:08:53;10.53;;;3.50;;
7899;SDS011;3995;50.856;4.404;2022-09-03T08:11:23;7.20;;;2.50;;
7899;SDS011;3995;50.856;4.404;2022-09-03T08:13:53;9.30;;;2.30;;
7899;SDS011;3995;50.856;4.404;2022-09-03T08:16:27;6.80;;;3.10;;
7899;SDS011;3995;50.856;4.404;2022-09-03T08:18:55;10.17;;;3.07;;
7899;SDS011;3995;50.856;4.404;2022-09-03T08:21:23;3.43;;;2.87;;
7899;SDS011;3995;50.856;4.404;2022-09-03T08:23:52;4.27;;;2.50;;
7899;SDS011;3995;50.856;4.404;2022-09-03T08:26:26;10.33;;;2.90;;
7899;SDS011;3995;50.856;4.404;2022-09-03T08:28:54;2.57;;;1.97;;
7899;SDS011;3995;50.856;4.404;2022-09-03T08:31:22;6.37;;;2.90;;
7899;SDS011;3995;50.856;4.404;2022-09-03T08:33:52;4.53;;;2.87;;
7899;SDS011;3995;50.856;4.404;2022-09-03T08:36:21;8.33;;;2.60;;
7899;SDS011;3995;50.856;4.404;2022-09-03T08:38:51;7.33;;;3.30;;
7899;SDS011;3995;50.856;4.404;2022-09-03T08:41:27;9.43;;;3.67;;
7899;SDS011;3995;50.856;4.404;2022-09-03T08:44:09;5.43;;;3.20;;
7899;SDS011;3995;50.856;4.404;2022-09-03T08:46:47;9.47;;;3.30;;
7899;SDS011;3995;50.856;4.404;2022-09-03T08:49:19;3.10;;;2.63;;
7899;SDS011;3995;50.856;4.404;2022-09-03T08:51:50;6.53;;;3.00;;
7899;SDS011;3995;50.856;4.404;2022-09-03T08:54:23;8.50;;;3.37;;
7899;SDS011;3995;50.856;4.404;2022-09-03T08:56:53;7.17;;;3.10;;
7899;SDS011;3995;50.856;4.404;2022-09-03T08:59:23;9.60;;;3.70;;
7899;SDS011;3995;50.856;4.404;2022-09-03T09:01:51;4.47;;;3.20;;
7899;SDS011;3995;50.856;4.404;2022-09-03T09:04:42;4.70;;;3.83;;
7899;SDS011;3995;50.856;4.404;2022-09-03T09:07:20;6.70;;;3.73;;
7899;SDS011;3995;50.856;4.404;2022-09-03T09:09:54;4.37;;;3.30;;
7899;SDS011;3995;50.856;4.404;2022-09-03T09:12:32;9.27;;;3.40;;
7899;SDS011;3995;50.856;4.404;2022-09-03T09:15:05;3.43;;;3.13;;
7899;SDS011;3995;50.856;4.404;2022-09-03T09:17:40;9.97;;;3.90;;
7899;SDS011;3995;50.856;4.404;2022-09-03T09:20:20;5.33;;;3.53;;
7899;SDS011;3995;50.856;4.404;2022-09-03T09:22:54;8.00;;;3.60;;
7899;SDS011;3995;50.856;4.404;2022-09-03T09:25:26;9.67;;;4.20;;
7899;SDS011;3995;50.856;4.404;2022-09-03T09:27:56;6.13;;;3.37;;
7899;SDS011;3995;50.856;4.404;2022-09-03T09:30:26;8.70;;;4.53;;
7899;SDS011;3995;50.856;4.404;2022-09-03T09:32:54;4.90;;;3.83;;
7899;SDS011;3995;50.856;4.404;2022-09-03T09:35:22;6.57;;;3.70;;
7899;SDS011;3995;50.856;4.404;2022-09-03T09:37:51;8.73;;;3.87;;
7899;SDS011;3995;50.856;4.404;2022-09-03T09:40:23;12.93;;;4.60;;
7899;SDS011;3995;50.856;4.404;2022-09-03T09:43:01;10.10;;;4.53;;
7899;SDS011;3995;50.856;4.404;2022-09-03T09:45:35;6.80;;;4.13;;
7899;SDS011;3995;50.856;4.404;2022-09-03T09:48:07;8.30;;;4.10;;
7899;SDS011;3995;50.856;4.404;2022-09-03T09:50:40;6.10;;;4.37;;
7899;SDS011;3995;50.856;4.404;2022-09-03T09:53:08;11.93;;;3.73;;
7899;SDS011;3995;50.856;4.404;2022-09-03T09:55:50;6.00;;;4.53;;
7899;SDS011;3995;50.856;4.404;2022-09-03T09:58:19;4.00;;;3.60;;
7899;SDS011;3995;50.856;4.404;2022-09-03T10:00:54;10.20;;;4.27;;
7899;SDS011;3995;50.856;4.404;2022-09-03T10:03:34;8.30;;;4.63;;
7899;SDS011;3995;50.856;4.404;2022-09-03T10:06:08;13.97;;;4.03;;
7899;SDS011;3995;50.856;4.404;2022-09-03T10:09:04;5.70;;;3.53;;
7899;SDS011;3995;50.856;4.404;2022-09-03T10:11:32;10.13;;;4.33;;
7899;SDS011;3995;50.856;4.404;2022-09-03T10:14:01;6.67;;;3.60;;
7899;SDS011;3995;50.856;4.404;2022-09-03T10:16:30;9.97;;;3.77;;
7899;SDS011;3995;50.856;4.404;2022-09-03T10:19:08;11.73;;;4.00;;
7899;SDS011;3995;50.856;4.404;2022-09-03T10:21:44;5.30;;;4.53;;
7899;SDS011;3995;50.856;4.404;2022-09-03T10:24:24;13.73;;;4.83;;
7899;SDS011;3995;50.856;4.404;2022-09-03T10:27:04;7.50;;;4.20;;
7899;SDS011;3995;50.856;4.404;2022-09-03T10:29:33;5.03;;;4.20;;
7899;SDS011;3995;50.856;4.404;2022-09-03T10:32:08;6.07;;;3.93;;
7899;SDS011;3995;50.856;4.404;2022-09-03T10:34:48;6.10;;;3.80;;
7899;SDS011;3995;50.856;4.404;2022-09-03T10:37:28;4.90;;;4.40;;
7899;SDS011;3995;50.856;4.404;2022-09-03T10:40:14;10.93;;;4.83;;
7899;SDS011;3995;50.856;4.404;2022-09-03T10:42:56;15.03;;;4.50;;
7899;SDS011;3995;50.856;4.404;2022-09-03T10:45:35;11.17;;;5.10;;
7899;SDS011;3995;50.856;4.404;2022-09-03T10:48:20;18.30;;;4.43;;
7899;SDS011;3995;50.856;4.404;2022-09-03T10:51:04;7.37;;;4.23;;
7899;SDS011;3995;50.856;4.404;2022-09-03T10:56:29;9.40;;;5.03;;
7899;SDS011;3995;50.856;4.404;2022-09-03T10:59:01;7.73;;;4.27;;
7899;SDS011;3995;50.856;4.404;2022-09-03T11:01:36;5.00;;;3.97;;
7899;SDS011;3995;50.856;4.404;2022-09-03T11:04:16;5.97;;;4.60;;
7899;SDS011;3995;50.856;4.404;2022-09-03T11:06:51;5.23;;;4.60;;
7899;SDS011;3995;50.856;4.404;2022-09-03T11:09:22;11.07;;;4.50;;
7899;SDS011;3995;50.856;4.404;2022-09-03T11:11:56;8.90;;;5.30;;
7899;SDS011;3995;50.856;4.404;2022-09-03T11:14:31;8.03;;;5.20;;
7899;SDS011;3995;50.856;4.404;2022-09-03T11:17:03;9.27;;;4.60;;
7899;SDS011;3995;50.856;4.404;2022-09-03T11:19:40;9.37;;;3.90;;
7899;SDS011;3995;50.856;4.404;2022-09-03T11:22:15;5.47;;;4.33;;
7899;SDS011;3995;50.856;4.404;2022-09-03T11:24:48;10.13;;;3.93;;
7899;SDS011;3995;50.856;4.404;2022-09-03T11:27:23;4.37;;;3.97;;
7899;SDS011;3995;50.856;4.404;2022-09-03T11:29:58;5.87;;;4.40;;
7899;SDS011;3995;50.856;4.404;2022-09-03T11:32:34;7.63;;;4.13;;
7899;SDS011;3995;50.856;4.404;2022-09-03T11:35:13;8.43;;;4.50;;
7899;SDS011;3995;50.856;4.404;2022-09-03T11:37:47;9.10;;;4.80;;
7899;SDS011;3995;50.856;4.404;2022-09-03T11:40:27;16.40;;;5.00;;
7899;SDS011;3995;50.856;4.404;2022-09-03T11:43:04;7.00;;;4.63;;
7899;SDS011;3995;50.856;4.404;2022-09-03T11:45:34;6.50;;;4.07;;
7899;SDS011;3995;50.856;4.404;2022-09-03T11:48:15;4.70;;;4.07;;
7899;SDS011;3995;50.856;4.404;2022-09-03T11:50:51;8.30;;;3.83;;
7899;SDS011;3995;50.856;4.404;2022-09-03T11:53:24;5.00;;;3.77;;
7899;SDS011;3995;50.856;4.404;2022-09-03T11:55:58;6.73;;;3.60;;
7899;SDS011;3995;50.856;4.404;2022-09-03T11:58:27;9.00;;;3.90;;
7899;SDS011;3995;50.856;4.404;2022-09-03T12:00:57;3.90;;;3.00;;
7899;SDS011;3995;50.856;4.404;2022-09-03T12:03:27;5.13;;;3.90;;
7899;SDS011;3995;50.856;4.404;2022-09-03T12:06:13;7.30;;;4.20;;
7899;SDS011;3995;50.856;4.404;2022-09-03T12:08:56;7.63;;;3.20;;
7899;SDS011;3995;50.856;4.404;2022-09-03T12:11:46;4.23;;;2.97;;
7899;SDS011;3995;50.856;4.404;2022-09-03T12:14:27;4.00;;;3.27;;
7899;SDS011;3995;50.856;4.404;2022-09-03T12:17:07;4.63;;;3.50;;
7899;SDS011;3995;50.856;4.404;2022-09-03T12:19:49;7.53;;;4.33;;
7899;SDS011;3995;50.856;4.404;2022-09-03T12:22:20;6.47;;;3.90;;
7899;SDS011;3995;50.856;4.404;2022-09-03T12:24:49;4.37;;;3.97;;
7899;SDS011;3995;50.856;4.404;2022-09-03T12:27:19;4.47;;;3.40;;
7899;SDS011;3995;50.856;4.404;2022-09-03T12:29:53;4.93;;;3.40;;
7899;SDS011;3995;50.856;4.404;2022-09-03T12:32:24;4.50;;;3.63;;
7899;SDS011;3995;50.856;4.404;2022-09-03T12:34:53;4.57;;;3.30;;
7899;SDS011;3995;50.856;4.404;2022-09-03T12:37:21;6.97;;;4.33;;
7899;SDS011;3995;50.856;4.404;2022-09-03T12:39:50;5.93;;;4.77;;
7899;SDS011;3995;50.856;4.404;2022-09-03T12:42:21;6.40;;;5.27;;
7899;SDS011;3995;50.856;4.404;2022-09-03T12:44:51;6.53;;;4.80;;
7899;SDS011;3995;50.856;4.404;2022-09-03T12:47:19;8.20;;;5.00;;
7899;SDS011;3995;50.856;4.404;2022-09-03T12:49:49;5.47;;;4.20;;
7899;SDS011;3995;50.856;4.404;2022-09-03T12:52:19;5.47;;;4.90;;
7899;SDS011;3995;50.856;4.404;2022-09-03T12:54:52;11.10;;;4.70;;
7899;SDS011;3995;50.856;4.404;2022-09-03T12:57:26;6.70;;;4.37;;
7899;SDS011;3995;50.856;4.404;2022-09-03T12:59:58;15.17;;;4.93;;
7899;SDS011;3995;50.856;4.404;2022-09-03T13:02:36;5.27;;;3.23;;
7899;SDS011;3995;50.856;4.404;2022-09-03T13:05:09;4.40;;;3.77;;
7899;SDS011;3995;50.856;4.404;2022-09-03T13:07:42;13.67;;;4.13;;
7899;SDS011;3995;50.856;4.404;2022-09-03T13:10:22;9.50;;;3.70;;
7899;SDS011;3995;50.856;4.404;2022-09-03T13:12:58;10.23;;;4.70;;
7899;SDS011;3995;50.856;4.404;2022-09-03T13:15:29;5.17;;;3.70;;
7899;SDS011;3995;50.856;4.404;2022-09-03T13:18:00;4.50;;;3.53;;
7899;SDS011;3995;50.856;4.404;2022-09-03T13:20:47;4.10;;;3.40;;
7899;SDS011;3995;50.856;4.404;2022-09-03T13:23:31;5.13;;;3.17;;
7899;SDS011;3995;50.856;4.404;2022-09-03T13:26:11;3.80;;;3.10;;
7899;SDS011;3995;50.856;4.404;2022-09-03T13:28:53;3.60;;;2.87;;
7899;SDS011;3995;50.856;4.404;2022-09-03T13:31:34;19.97;;;3.13;;
7899;SDS011;3995;50.856;4.404;2022-09-03T13:34:05;3.40;;;3.10;;
7899;SDS011;3995;50.856;4.404;2022-09-03T13:36:40;5.47;;;3.03;;
7899;SDS011;3995;50.856;4.404;2022-09-03T13:39:16;4.07;;;2.97;;
7899;SDS011;3995;50.856;4.404;2022-09-03T13:41:50;3.47;;;2.30;;
7899;SDS011;3995;50.856;4.404;2022-09-03T13:44:23;3.40;;;2.30;;
7899;SDS011;3995;50.856;4.404;2022-09-03T13:47:03;6.10;;;2.40;;
7899;SDS011;3995;50.856;4.404;2022-09-03T13:49:36;2.97;;;2.63;;
7899;SDS011;3995;50.856;4.404;2022-09-03T13:52:26;3.33;;;2.80;;
7899;SDS011;3995;50.856;4.404;2022-09-03T13:55:00;11.80;;;2.80;;
7899;SDS011;3995;50.856;4.404;2022-09-03T13:57:37;3.80;;;2.80;;
7899;SDS011;3995;50.856;4.404;2022-09-03T14:00:12;2.53;;;2.23;;
7899;SDS011;3995;50.856;4.404;2022-09-03T14:02:49;3.60;;;2.33;;
7899;SDS011;3995;50.856;4.404;2022-09-03T14:05:24;3.10;;;2.47;;
7899;SDS011;3995;50.856;4.404;2022-09-03T14:08:04;3.57;;;2.80;;
7899;SDS011;3995;50.856;4.404;2022-09-03T14:10:43;5.83;;;2.60;;
7899;SDS011;3995;50.856;4.404;2022-09-03T14:13:21;3.60;;;2.80;;
7899;SDS011;3995;50.856;4.404;2022-09-03T14:15:59;3.53;;;2.10;;
7899;SDS011;3995;50.856;4.404;2022-09-03T14:18:38;3.90;;;2.20;;
7899;SDS011;3995;50.856;4.404;2022-09-03T14:21:12;2.47;;;2.27;;
7899;SDS011;3995;50.856;4.404;2022-09-03T14:23:46;2.60;;;2.40;;
7899;SDS011;3995;50.856;4.404;2022-09-03T14:26:36;5.43;;;2.10;;
7899;SDS011;3995;50.856;4.404;2022-09-03T14:29:15;3.40;;;2.17;;
7899;SDS011;3995;50.856;4.404;2022-09-03T14:31:51;6.30;;;2.37;;
7899;SDS011;3995;50.856;4.404;2022-09-03T14:34:46;8.00;;;2.50;;
7899;SDS011;3995;50.856;4.404;2022-09-03T14:37:43;3.33;;;2.30;;
7899;SDS011;3995;50.856;4.404;2022-09-03T14:40:33;3.70;;;2.70;;
7899;SDS011;3995;50.856;4.404;2022-09-03T14:43:11;3.20;;;2.33;;
7899;SDS011;3995;50.856;4.404;2022-09-03T14:45:54;1.93;;;1.53;;
7899;SDS011;3995;50.856;4.404;2022-09-03T14:51:26;15.93;;;4.57;;
7899;SDS011;3995;50.856;4.404;2022-09-03T14:56:59;8.03;;;4.00;;
7899;SDS011;3995;50.856;4.404;2022-09-03T14:59:41;13.07;;;3.93;;
7899;SDS011;3995;50.856;4.404;2022-09-03T15:02:34;8.00;;;3.10;;
7899;SDS011;3995;50.856;4.404;2022-09-03T15:05:37;10.60;;;3.30;;
7899;SDS011;3995;50.856;4.404;2022-09-03T15:08:11;4.30;;;3.40;;
7899;SDS011;3995;50.856;4.404;2022-09-03T15:10:46;6.67;;;3.87;;
7899;SDS011;3995;50.856;4.404;2022-09-03T15:13:19;4.30;;;3.70;;
7899;SDS011;3995;50.856;4.404;2022-09-03T15:15:57;4.87;;;3.10;;
7899;SDS011;3995;50.856;4.404;2022-09-03T15:18:36;3.60;;;3.13;;
7899;SDS011;3995;50.856;4.404;2022-09-03T15:21:19;7.50;;;3.60;;
7899;SDS011;3995;50.856;4.404;2022-09-03T15:23:57;5.50;;;3.03;;
7899;SDS011;3995;50.856;4.404;2022-09-03T15:26:43;3.30;;;2.87;;
7899;SDS011;3995;50.856;4.404;2022-09-03T15:29:24;6.20;;;2.90;;
7899;SDS011;3995;50.856;4.404;2022-09-03T15:32:04;3.60;;;3.20;;
7899;SDS011;3995;50.856;4.404;2022-09-03T15:37:31;5.10;;;3.40;;
7899;SDS011;3995;50.856;4.404;2022-09-03T15:40:04;4.20;;;3.80;;
7899;SDS011;3995;50.856;4.404;2022-09-03T15:42:35;4.80;;;3.70;;
7899;SDS011;3995;50.856;4.404;2022-09-03T15:45:05;4.43;;;3.50;;
7899;SDS011;3995;50.856;4.404;2022-09-03T15:47:47;8.30;;;2.90;;
7899;SDS011;3995;50.856;4.404;2022-09-03T15:50:24;4.43;;;3.53;;
7899;SDS011;3995;50.856;4.404;2022-09-03T15:53:01;4.40;;;4.00;;
7899;SDS011;3995;50.856;4.404;2022-09-03T15:55:39;6.97;;;3.60;;
7899;SDS011;3995;50.856;4.404;2022-09-03T15:58:10;5.57;;;3.37;;
7899;SDS011;3995;50.856;4.404;2022-09-03T16:00:52;5.20;;;3.30;;
7899;SDS011;3995;50.856;4.404;2022-09-03T16:03:30;5.67;;;3.30;;
7899;SDS011;3995;50.856;4.404;2022-09-03T16:06:15;3.47;;;2.83;;